Time;durP1;ratioP1;P1;durP2;ratioP2;P2;SDS_P1;SDS_P2;PMS_P1;PMS_P2;Temp;Humidity;BMP_temperature;BMP_pressure;BME280_temperature;BME280_humidity;BME280_pressure;Samples;Min_cycle;Max_cycle;Signal;HPM_P1;HPM_P2
2023/06/12 00:01:19;;;;;;;;;;;;;;;9.69;79.96;102844.31;5051546;28;19921;-65
2023/06/12 00:03:47;;;;;;;;;;;;;;;9.67;79.75;102851.53;5051555;28;20453;-63
2023/06/12 00:06:12;;;;;;;;;;;;;;;9.63;80.52;102845.59;5051695;28;20000;-62
2023/06/12 00:08:41;;;;;;;;;;;;;;;9.62;80.56;102849.19;5051966;28;19935;-64
2023/06/12 00:11:09;;;;;;;;;;;;;;;9.59;81.78;102846.75;5017995;28;19978;-63
2023/06/12 00:13:35;;;;;;;;;;;;;;;9.57;81.62;102850.47;5036728;28;19943;-65
2023/06/12 00:16:00;;;;;;;;;;;;;;;9.57;81.02;102847.81;5055182;28;19921;-64
2023/06/12 00:18:26;;;;;;;;;;;;;;;9.55;81.22;102852.41;5037552;28;20311;-64
2023/06/12 00:20:51;;;;;;;;;;;;;;;9.53;82.04;102855.13;5055501;28;19920;-63
2023/06/12 00:23:17;;;;;;;;;;;;;;;9.52;82.00;102852.56;5055365;28;19944;-65
2023/06/12 00:25:42;;;;;;;;;;;;;;;9.51;81.82;102848.22;5037191;28;20406;-64
2023/06/12 00:28:08;;;;;;;;;;;;;;;9.50;81.34;102849.16;5055134;28;19921;-63
2023/06/12 00:30:33;;;;;;;;;;;;;;;9.48;82.56;102853.75;5037142;28;19928;-63
2023/06/12 00:32:59;;;;;;;;;;;;;;;9.46;81.69;102851.19;5055005;28;20447;-64
2023/06/12 00:35:24;;;;;;;;;;;;;;;9.44;82.45;102844.28;5055125;28;19921;-64
2023/06/12 00:37:50;;;;;;;;;;;;;;;9.42;82.18;102851.50;5054885;28;20395;-63
2023/06/12 00:40:16;;;;;;;;;;;;;;;9.41;83.19;102845.34;5054963;28;19932;-64
2023/06/12 00:42:42;;;;;;;;;;;;;;;9.39;82.81;102847.25;5054710;28;20402;-64
2023/06/12 00:45:12;;;;;;;;;;;;;;;9.38;83.56;102850.03;5054625;28;20437;-64
2023/06/12 00:47:38;;;;;;;;;;;;;;;9.37;83.50;102856.28;5056317;28;19925;-62
2023/06/12 00:50:04;;;;;;;;;;;;;;;9.37;83.69;102851.81;5056210;28;19925;-63
2023/06/12 00:52:34;;;;;;;;;;;;;;;9.37;83.84;102854.50;5036774;28;20392;-63
2023/06/12 00:55:00;;;;;;;;;;;;;;;9.37;83.13;102858.97;5054769;28;19979;-66
2023/06/12 00:57:26;;;;;;;;;;;;;;;9.36;83.52;102863.41;5054683;28;19921;-63
2023/06/12 00:59:52;;;;;;;;;;;;;;;9.37;84.61;102862.47;5054378;28;19920;-64
2023/06/12 01:02:18;;;;;;;;;;;;;;;9.37;83.94;102854.50;5036753;28;20319;-62
2023/06/12 01:04:46;;;;;;;;;;;;;;;9.37;84.24;102859.81;5054554;28;19931;-62
2023/06/12 01:07:21;;;;;;;;;;;;;;;9.38;84.31;102866.81;5054372;28;19943;-65
2023/06/12 01:10:10;;;;;;;;;;;;;;;9.40;84.37;102862.25;5054878;28;19974;-64
2023/06/12 01:12:36;;;;;;;;;;;;;;;9.43;84.14;102858.53;5036656;28;19931;-64
2023/06/12 01:15:01;;;;;;;;;;;;;;;9.43;83.61;102854.06;5054244;28;20408;-63
2023/06/12 01:17:27;;;;;;;;;;;;;;;9.46;83.56;102856.50;5054150;28;19921;-64
2023/06/12 01:19:56;;;;;;;;;;;;;;;9.48;83.91;102857.25;5054175;28;19947;-63
2023/06/12 01:22:22;;;;;;;;;;;;;;;9.49;84.58;102864.28;5053972;28;20023;-62
2023/06/12 01:24:56;;;;;;;;;;;;;;;9.52;83.64;102863.22;5035542;28;19974;-65
2023/06/12 01:27:32;;;;;;;;;;;;;;;9.54;84.18;102861.31;5054062;28;19924;-62
2023/06/12 01:30:07;;;;;;;;;;;;;;;9.54;84.65;102862.19;5054062;28;19921;-63
2023/06/12 01:32:37;;;;;;;;;;;;;;;9.57;84.34;102869.94;5053926;28;19921;-63
2023/06/12 01:35:11;;;;;;;;;;;;;;;9.59;83.37;102868.03;5053835;28;20406;-63
2023/06/12 01:37:46;;;;;;;;;;;;;;;9.65;83.57;102880.06;5055174;28;20380;-64
2023/06/12 01:40:12;;;;;;;;;;;;;;;9.66;84.77;102880.91;5055850;28;20384;-62
2023/06/12 01:42:38;;;;;;;;;;;;;;;9.68;84.92;102873.69;5054217;28;19975;-63
2023/06/12 01:45:03;;;;;;;;;;;;;;;9.70;84.21;102885.91;5053523;28;19952;-63
2023/06/12 01:47:29;;;;;;;;;;;;;;;9.75;84.53;102870.47;5053517;28;20291;-63
2023/06/12 01:49:54;;;;;;;;;;;;;;;9.81;83.39;102879.84;5053399;28;19920;-62
2023/06/12 01:52:19;;;;;;;;;;;;;;;9.85;84.03;102886.69;5053178;28;19967;-63
2023/06/12 01:54:48;;;;;;;;;;;;;;;9.88;84.34;102883.81;5053434;28;20031;-63
2023/06/12 01:57:13;;;;;;;;;;;;;;;9.89;85.04;102888.16;5036277;28;19935;-63
2023/06/12 01:59:39;;;;;;;;;;;;;;;9.91;84.95;102886.25;5053410;28;19921;-62
2023/06/12 02:02:05;;;;;;;;;;;;;;;9.92;84.89;102877.31;5053362;28;19927;-62
2023/06/12 02:04:30;;;;;;;;;;;;;;;9.96;84.90;102886.78;5018643;28;19921;-63
2023/06/12 02:06:56;;;;;;;;;;;;;;;9.99;85.74;102883.91;5035486;28;20299;-68
2023/06/12 02:09:22;;;;;;;;;;;;;;;10.02;85.21;102889.00;5053239;28;20035;-63
2023/06/12 02:11:48;;;;;;;;;;;;;;;10.05;85.30;102888.78;5053863;28;19947;-64
2023/06/12 02:14:13;;;;;;;;;;;;;;;10.09;85.15;102884.09;5053203;28;20064;-62
2023/06/12 02:16:39;;;;;;;;;;;;;;;10.11;84.95;102883.03;5052847;28;19967;-64
2023/06/12 02:19:04;;;;;;;;;;;;;;;10.12;84.78;102879.44;5034840;28;19974;-63
2023/06/12 02:21:49;;;;;;;;;;;;;;;10.15;84.91;102883.69;5024750;28;20303;-61
2023/06/12 02:24:16;;;;;;;;;;;;;;;10.16;85.12;102888.91;5035226;28;19935;-64
2023/06/12 02:26:41;;;;;;;;;;;;;;;10.19;85.16;102887.84;5052895;28;19986;-62
2023/06/12 02:29:08;;;;;;;;;;;;;;;10.20;85.62;102886.88;5053816;28;19990;-62
2023/06/12 02:31:33;;;;;;;;;;;;;;;10.22;86.10;102880.50;5053591;28;19956;-62
2023/06/12 02:33:58;;;;;;;;;;;;;;;10.24;86.05;102883.91;5053339;28;19960;-64
2023/06/12 02:36:24;;;;;;;;;;;;;;;10.29;85.50;102891.56;5053289;28;19927;-62
2023/06/12 02:38:50;;;;;;;;;;;;;;;10.33;85.24;102881.53;5052725;28;19920;-63
2023/06/12 02:41:15;;;;;;;;;;;;;;;10.38;85.48;102887.41;5052535;28;19968;-62
2023/06/12 02:43:41;;;;;;;;;;;;;;;10.44;84.93;102889.66;5052971;28;19921;-63
2023/06/12 02:46:06;;;;;;;;;;;;;;;10.50;84.79;102878.53;5052220;28;20350;-61
2023/06/12 02:48:31;;;;;;;;;;;;;;;10.61;84.96;102881.28;5052216;28;19963;-64
2023/06/12 02:50:57;;;;;;;;;;;;;;;10.88;85.19;102889.06;5052488;28;19921;-62
2023/06/12 02:53:22;;;;;;;;;;;;;;;11.64;85.51;102887.81;5052498;28;19960;-64
2023/06/12 02:55:49;;;;;;;;;;;;;;;13.49;85.65;102887.94;5052307;28;19968;-63
2023/06/12 02:58:15;;;;;;;;;;;;;;;15.62;76.82;102883.25;5052300;28;19933;-63
2023/06/12 03:00:40;;;;;;;;;;;;;;;17.41;67.83;102880.00;5052149;28;20288;-61
2023/06/12 03:03:06;;;;;;;;;;;;;;;18.76;59.25;102881.94;5034324;28;19920;-63
2023/06/12 03:05:31;;;;;;;;;;;;;;;19.82;54.69;102892.81;5052335;28;19920;-64
2023/06/12 03:08:02;;;;;;;;;;;;;;;20.59;52.56;102884.97;5052847;28;19925;-62
2023/06/12 03:10:27;;;;;;;;;;;;;;;21.33;50.51;102884.31;5052676;28;19924;-64
2023/06/12 03:12:53;;;;;;;;;;;;;;;21.81;48.54;102876.75;5051856;28;20291;-64
2023/06/12 03:15:18;;;;;;;;;;;;;;;22.22;47.80;102895.31;5052194;28;20411;-63
2023/06/12 03:17:43;;;;;;;;;;;;;;;22.64;46.75;102893.75;5052001;28;20383;-64
2023/06/12 03:20:09;;;;;;;;;;;;;;;22.98;45.99;102890.41;5051929;28;19920;-61
2023/06/12 03:22:35;;;;;;;;;;;;;;;23.17;45.39;102890.59;5052068;28;19921;-64
2023/06/12 03:25:01;;;;;;;;;;;;;;;23.33;44.73;102897.63;5051778;28;19982;-62
2023/06/12 03:27:29;;;;;;;;;;;;;;;23.53;44.48;102895.09;5034013;28;19920;-63
2023/06/12 03:29:55;;;;;;;;;;;;;;;23.71;43.61;102887.31;5051920;28;19928;-64
2023/06/12 03:32:20;;;;;;;;;;;;;;;23.80;42.59;102890.72;5051805;28;19920;-62
2023/06/12 03:34:47;;;;;;;;;;;;;;;23.67;43.74;102891.47;5051873;28;19931;-64
2023/06/12 03:37:12;;;;;;;;;;;;;;;22.50;44.24;102898.16;5051886;28;19960;-65
2023/06/12 03:39:38;;;;;;;;;;;;;;;22.01;46.95;102897.91;5051742;28;19964;-62
2023/06/12 03:42:03;;;;;;;;;;;;;;;22.69;45.18;102902.16;5051646;28;19932;-66
2023/06/12 03:44:28;;;;;;;;;;;;;;;23.39;44.66;102896.00;5051738;28;19925;-62
2023/06/12 03:46:54;;;;;;;;;;;;;;;24.13;43.47;102901.81;5052267;28;19920;-65
2023/06/12 03:49:20;;;;;;;;;;;;;;;24.68;41.45;102895.38;5056136;28;19921;-64
2023/06/12 03:51:46;;;;;;;;;;;;;;;25.05;39.71;102900.53;5058752;28;19948;-65
2023/06/12 03:54:11;;;;;;;;;;;;;;;25.14;39.39;102902.00;5057929;28;19920;-64
2023/06/12 03:56:37;;;;;;;;;;;;;;;25.28;40.04;102910.00;5056005;28;19921;-63
2023/06/12 03:59:02;;;;;;;;;;;;;;;25.48;39.89;102906.47;5055486;28;19925;-64
2023/06/12 04:01:27;;;;;;;;;;;;;;;25.71;38.28;102906.88;5056132;28;19928;-64
2023/06/12 04:03:56;;;;;;;;;;;;;;;25.78;38.08;102902.28;5055681;28;19925;-64
2023/06/12 04:06:22;;;;;;;;;;;;;;;25.83;37.38;102896.16;5055213;28;20403;-64
2023/06/12 04:08:51;;;;;;;;;;;;;;;25.76;37.42;102900.81;5054910;28;20057;-63
2023/06/12 04:11:18;;;;;;;;;;;;;;;25.79;37.70;102898.50;5055104;28;19932;-62
2023/06/12 04:13:44;;;;;;;;;;;;;;;25.88;36.89;102896.38;5037434;28;19924;-63
2023/06/12 04:16:10;;;;;;;;;;;;;;;25.83;35.50;102905.19;5055514;28;19921;-63
2023/06/12 04:18:37;;;;;;;;;;;;;;;25.98;36.63;102894.03;5055115;28;19921;-64
2023/06/12 04:21:03;;;;;;;;;;;;;;;26.23;35.84;102895.00;5055079;28;19966;-64
2023/06/12 04:23:29;;;;;;;;;;;;;;;26.34;35.41;102890.81;5055213;28;19921;-64
2023/06/12 04:26:04;;;;;;;;;;;;;;;26.53;34.90;102889.84;5054768;28;19920;-63
2023/06/12 04:28:30;;;;;;;;;;;;;;;26.79;32.87;102899.81;5055222;28;19920;-63
2023/06/12 04:30:55;;;;;;;;;;;;;;;26.81;31.58;102897.69;5054980;28;19921;-64
2023/06/12 04:33:21;;;;;;;;;;;;;;;26.76;30.94;102894.78;5054922;28;19927;-63
2023/06/12 04:35:46;;;;;;;;;;;;;;;26.51;31.72;102897.44;5036918;28;20003;-63
2023/06/12 04:38:11;;;;;;;;;;;;;;;26.34;32.52;102892.69;5054776;28;19960;-64
2023/06/12 04:40:37;;;;;;;;;;;;;;;26.55;33.95;102903.31;5054874;28;20366;-65
2023/06/12 04:43:03;;;;;;;;;;;;;;;26.62;32.17;102895.94;5054863;28;19924;-64
2023/06/12 04:45:32;;;;;;;;;;;;;;;26.41;33.11;102897.06;5055171;28;19928;-63
2023/06/12 04:47:57;;;;;;;;;;;;;;;26.15;33.79;102902.59;5055665;28;19966;-62
2023/06/12 04:50:23;;;;;;;;;;;;;;;26.05;34.21;102894.03;5055709;28;20362;-64
2023/06/12 04:52:50;;;;;;;;;;;;;;;25.97;34.30;102889.63;5054599;28;19976;-64
2023/06/12 04:55:20;;;;;;;;;;;;;;;26.15;34.27;102900.69;5054088;28;19975;-65
2023/06/12 04:57:47;;;;;;;;;;;;;;;26.42;32.92;102886.97;5054306;28;19920;-62
2023/06/12 05:00:15;;;;;;;;;;;;;;;26.37;32.53;102895.00;5053097;28;19925;-65
2023/06/12 05:02:41;;;;;;;;;;;;;;;26.21;32.82;102883.44;5054959;28;19968;-66
2023/06/12 05:05:06;;;;;;;;;;;;;;;26.18;32.71;102896.72;5054279;28;20391;-63
2023/06/12 05:07:35;;;;;;;;;;;;;;;25.98;32.69;102880.38;5053926;28;19924;-64
2023/06/12 05:10:01;;;;;;;;;;;;;;;25.92;31.73;102886.69;5054325;28;19924;-63
2023/06/12 05:12:26;;;;;;;;;;;;;;;25.60;31.31;102893.84;5055097;28;20473;-63
2023/06/12 05:14:51;;;;;;;;;;;;;;;25.55;31.81;102897.22;5055094;28;19920;-63
2023/06/12 05:17:17;;;;;;;;;;;;;;;25.30;32.03;102901.63;5036500;28;20020;-64
2023/06/12 05:19:43;;;;;;;;;;;;;;;24.91;31.70;102895.03;5054036;28;19943;-64
2023/06/12 05:22:08;;;;;;;;;;;;;;;24.40;32.24;102903.66;5054414;28;19921;-64
2023/06/12 05:24:34;;;;;;;;;;;;;;;23.62;32.94;102904.81;5053568;28;19925;-63
2023/06/12 05:27:00;;;;;;;;;;;;;;;22.24;35.34;102904.94;5053719;28;20380;-64
2023/06/12 05:29:26;;;;;;;;;;;;;;;21.11;37.06;102898.72;5036288;28;20070;-65
2023/06/12 05:31:51;;;;;;;;;;;;;;;20.25;37.38;102906.94;5053701;28;19985;-65
2023/06/12 05:34:17;;;;;;;;;;;;;;;19.47;40.10;102905.69;5054155;28;20350;-63
2023/06/12 05:36:42;;;;;;;;;;;;;;;19.03;40.67;102907.81;5053518;28;19944;-64
2023/06/12 05:39:07;;;;;;;;;;;;;;;18.76;41.44;102908.94;5053710;28;19936;-64
2023/06/12 05:41:33;;;;;;;;;;;;;;;18.62;41.36;102909.59;5035828;28;19925;-61
2023/06/12 05:43:58;;;;;;;;;;;;;;;18.52;41.34;102914.25;5053564;28;19921;-63
2023/06/12 05:46:23;;;;;;;;;;;;;;;18.31;38.99;102905.72;5053617;28;19972;-64
2023/06/12 05:48:50;;;;;;;;;;;;;;;18.13;39.18;102905.78;5053632;28;20027;-63
2023/06/12 05:51:15;;;;;;;;;;;;;;;18.01;39.75;102907.94;5053320;28;19921;-65
2023/06/12 05:53:44;;;;;;;;;;;;;;;17.87;37.77;102903.09;5053202;28;19983;-66
2023/06/12 05:56:10;;;;;;;;;;;;;;;17.84;38.59;102900.72;5053171;28;20038;-64
2023/06/12 05:58:36;;;;;;;;;;;;;;;17.89;39.98;102906.47;5053999;28;20311;-63
2023/06/12 06:01:02;;;;;;;;;;;;;;;17.93;39.70;102897.09;5055886;28;20027;-64
2023/06/12 06:03:32;;;;;;;;;;;;;;;17.96;39.45;102899.47;5054821;28;19921;-64
2023/06/12 06:05:58;;;;;;;;;;;;;;;17.98;39.10;102894.75;5053563;28;19927;-62
2023/06/12 06:08:23;;;;;;;;;;;;;;;17.96;38.43;102896.78;5052887;28;20023;-63
2023/06/12 06:10:48;;;;;;;;;;;;;;;17.95;38.88;102895.09;5052682;28;19932;-62
2023/06/12 06:13:14;;;;;;;;;;;;;;;17.85;36.43;102895.19;5053146;28;19936;-64
2023/06/12 06:15:39;;;;;;;;;;;;;;;17.78;36.90;102899.50;5052627;28;20284;-63
2023/06/12 06:18:06;;;;;;;;;;;;;;;17.68;37.31;102892.56;5052982;28;19920;-63
2023/06/12 06:20:31;;;;;;;;;;;;;;;17.57;36.27;102893.59;5052980;28;19928;-62
2023/06/12 06:22:57;;;;;;;;;;;;;;;17.52;36.69;102888.69;5052704;28;19921;-63
2023/06/12 06:25:23;;;;;;;;;;;;;;;17.57;36.87;102897.13;5052565;28;19920;-64
2023/06/12 06:27:48;;;;;;;;;;;;;;;17.57;34.88;102897.13;5051757;28;20264;-63
2023/06/12 06:30:14;;;;;;;;;;;;;;;17.61;35.95;102895.81;5051590;28;19927;-64
2023/06/12 06:32:39;;;;;;;;;;;;;;;17.72;35.83;102893.91;5052096;28;19925;-65
2023/06/12 06:35:05;;;;;;;;;;;;;;;17.72;33.88;102893.91;5051856;28;19960;-63
2023/06/12 06:37:31;;;;;;;;;;;;;;;17.67;33.83;102891.69;5052030;28;20357;-63
2023/06/12 06:39:56;;;;;;;;;;;;;;;17.67;33.32;102891.69;5052416;28;19928;-63
2023/06/12 06:42:21;;;;;;;;;;;;;;;17.73;34.13;102890.22;5052407;28;19968;-65
2023/06/12 06:44:49;;;;;;;;;;;;;;;17.74;33.58;102884.66;5051942;28;20368;-64
2023/06/12 06:47:14;;;;;;;;;;;;;;;17.78;32.97;102887.88;5049448;28;19979;-64
2023/06/12 06:49:40;;;;;;;;;;;;;;;17.77;33.07;102887.03;5051933;28;19959;-63
2023/06/12 06:52:05;;;;;;;;;;;;;;;17.73;32.94;102890.22;5034347;28;19942;-64
2023/06/12 06:54:31;;;;;;;;;;;;;;;17.71;33.05;102886.84;5052536;28;19921;-64
2023/06/12 06:56:56;;;;;;;;;;;;;;;17.75;33.45;102883.66;5052355;28;20011;-65
2023/06/12 06:59:22;;;;;;;;;;;;;;;17.83;32.94;102885.56;5034279;28;19921;-63
2023/06/12 07:01:47;;;;;;;;;;;;;;;17.91;32.75;102893.69;5051700;28;19931;-63
2023/06/12 07:04:13;;;;;;;;;;;;;;;17.94;34.16;102893.41;5051862;28;19924;-65
2023/06/12 07:06:38;;;;;;;;;;;;;;;17.96;32.95;102886.00;5052176;28;19927;-63
2023/06/12 07:09:04;;;;;;;;;;;;;;;17.95;33.42;102881.59;5052118;28;20004;-63
2023/06/12 07:11:30;;;;;;;;;;;;;;;17.98;32.21;102883.97;5051800;28;19979;-65
2023/06/12 07:13:56;;;;;;;;;;;;;;;17.95;31.38;102892.38;5051901;28;20299;-63
2023/06/12 07:16:21;;;;;;;;;;;;;;;17.89;31.60;102891.16;5051949;28;19927;-64
2023/06/12 07:18:47;;;;;;;;;;;;;;;17.85;32.16;102888.94;5051797;28;19928;-65
2023/06/12 07:21:14;;;;;;;;;;;;;;;17.88;32.89;102883.22;5052135;28;19921;-66
2023/06/12 07:23:39;;;;;;;;;;;;;;;17.87;31.09;102879.69;5051141;28;19928;-64
2023/06/12 07:26:04;;;;;;;;;;;;;;;17.76;30.88;102887.22;5051818;28;19921;-66
2023/06/12 07:28:30;;;;;;;;;;;;;;;17.80;32.33;102880.50;5052858;28;20016;-65
2023/06/12 07:30:55;;;;;;;;;;;;;;;17.82;31.99;102875.78;5034717;28;20353;-64
2023/06/12 07:33:20;;;;;;;;;;;;;;;17.87;32.50;102876.16;5052834;28;19921;-64
2023/06/12 07:35:46;;;;;;;;;;;;;;;17.94;32.45;102879.91;5051829;28;19920;-65
2023/06/12 07:38:12;;;;;;;;;;;;;;;18.01;32.35;102875.56;5052092;28;20380;-64
2023/06/12 07:40:37;;;;;;;;;;;;;;;18.07;30.91;102877.63;5051849;28;19976;-65
2023/06/12 07:43:02;;;;;;;;;;;;;;;18.10;30.62;102887.22;5051878;28;20435;-66
2023/06/12 07:45:28;;;;;;;;;;;;;;;18.10;31.50;102874.59;5051652;28;19920;-63
2023/06/12 07:47:55;;;;;;;;;;;;;;;18.09;31.74;102886.38;5051512;28;19924;-63
2023/06/12 07:50:20;;;;;;;;;;;;;;;18.06;31.81;102885.88;5033705;28;19921;-67
2023/06/12 07:52:45;;;;;;;;;;;;;;;18.00;32.11;102887.34;5051473;28;19995;-63
2023/06/12 07:55:11;;;;;;;;;;;;;;;18.04;32.17;102888.72;5033611;28;19959;-65
2023/06/12 07:57:36;;;;;;;;;;;;;;;18.09;32.28;102890.94;5033820;28;19927;-63
2023/06/12 08:00:05;;;;;;;;;;;;;;;18.08;32.76;102890.09;5051532;28;19921;-65
2023/06/12 08:02:33;;;;;;;;;;;;;;;18.09;33.10;102886.38;5051500;28;19924;-65
2023/06/12 08:04:59;;;;;;;;;;;;;;;18.16;33.15;102894.69;5051798;28;19950;-62
2023/06/12 08:07:26;;;;;;;;;;;;;;;18.15;32.90;102885.75;5054473;28;20026;-66
2023/06/12 08:09:51;;;;;;;;;;;;;;;18.17;33.03;102889.13;5054032;28;19940;-63
2023/06/12 08:12:17;;;;;;;;;;;;;;;18.20;33.05;102890.66;5071647;28;19920;-64
2023/06/12 08:14:42;;;;;;;;;;;;;;;18.17;33.06;102889.13;5072397;28;19920;-65
2023/06/12 08:17:08;;;;;;;;;;;;;;;18.20;33.71;102887.94;5071708;28;20322;-63
2023/06/12 08:19:34;;;;;;;;;;;;;;;18.21;33.29;102895.91;5053251;28;20474;-64
2023/06/12 08:22:00;;;;;;;;;;;;;;;18.15;32.26;102885.75;5071600;28;19966;-63
2023/06/12 08:24:29;;;;;;;;;;;;;;;18.14;32.84;102889.44;5071279;28;19925;-62
2023/06/12 08:26:55;;;;;;;;;;;;;;;18.07;32.96;102888.41;5071577;28;20349;-62
2023/06/12 08:29:20;;;;;;;;;;;;;;;18.11;32.92;102887.06;5071263;28;19920;-65
2023/06/12 08:31:46;;;;;;;;;;;;;;;18.12;33.20;102882.53;5071164;28;19920;-66
2023/06/12 08:34:11;;;;;;;;;;;;;;;18.13;32.92;102876.97;5073457;28;20043;-69
2023/06/12 08:36:37;;;;;;;;;;;;;;;18.19;33.87;102881.72;5074832;28;20391;-68
2023/06/12 08:39:06;;;;;;;;;;;;;;;18.27;34.32;102873.69;5074031;28;21212;-70
2023/06/12 08:41:34;;;;;;;;;;;;;;;18.35;34.28;102877.41;5074876;28;19964;-67
2023/06/12 08:44:00;;;;;;;;;;;;;;;18.36;34.25;102877.25;5075014;28;20015;-65
2023/06/12 08:46:28;;;;;;;;;;;;;;;18.34;34.39;102875.72;5074507;28;20018;-66
2023/06/12 08:48:53;;;;;;;;;;;;;;;18.38;34.79;102880.63;5074729;28;19956;-65
2023/06/12 08:51:20;;;;;;;;;;;;;;;18.33;34.60;102879.44;5074845;28;19952;-68
2023/06/12 08:53:46;;;;;;;;;;;;;;;18.37;34.92;102870.00;5074620;28;19921;-68
2023/06/12 08:56:14;;;;;;;;;;;;;;;18.45;35.58;102870.88;5040030;28;19920;-66
2023/06/12 08:58:41;;;;;;;;;;;;;;;18.52;34.93;102871.09;5075242;28;19921;-65
2023/06/12 09:01:08;;;;;;;;;;;;;;;18.50;35.40;102862.28;5074582;28;19940;-65
2023/06/12 09:03:35;;;;;;;;;;;;;;;18.57;35.20;102857.94;5074488;28;19924;-63
2023/06/12 09:06:05;;;;;;;;;;;;;;;18.57;35.24;102866.03;5039432;28;20292;-65
2023/06/12 09:08:30;;;;;;;;;;;;;;;18.63;35.82;102859.16;5074120;28;19978;-64
2023/06/12 09:10:57;;;;;;;;;;;;;;;18.67;35.41;102863.22;5074801;28;19925;-67
2023/06/12 09:13:22;;;;;;;;;;;;;;;18.58;35.13;102859.63;5074060;28;19928;-66
2023/06/12 09:15:52;;;;;;;;;;;;;;;18.59;35.41;102855.91;5056002;28;19921;-67
2023/06/12 09:18:18;;;;;;;;;;;;;;;18.62;35.69;102852.91;5074210;28;19920;-67
2023/06/12 09:20:43;;;;;;;;;;;;;;;18.69;35.59;102851.25;5074100;28;19966;-66
2023/06/12 09:23:09;;;;;;;;;;;;;;;18.77;35.11;102853.94;5073988;28;19940;-65
2023/06/12 09:25:36;;;;;;;;;;;;;;;18.83;35.70;102853.31;5057071;28;20458;-67
2023/06/12 09:28:04;;;;;;;;;;;;;;;18.86;35.63;102852.97;5055709;28;19924;-65
2023/06/12 09:30:31;;;;;;;;;;;;;;;18.68;35.46;102811.75;5073913;28;19927;-65
2023/06/12 09:32:56;;;;;;;;;;;;;;;18.86;35.37;102852.13;5073952;28;19924;-66
2023/06/12 09:35:22;;;;;;;;;;;;;;;18.87;35.51;102849.25;5073734;28;19931;-66
2023/06/12 09:37:48;;;;;;;;;;;;;;;18.98;35.86;102849.94;5073827;28;19920;-69
2023/06/12 09:40:14;;;;;;;;;;;;;;;19.06;35.34;102836.44;5074105;28;19920;-65
2023/06/12 09:42:40;;;;;;;;;;;;;;;19.10;34.00;102835.09;5074275;28;19920;-67
2023/06/12 09:45:16;;;;;;;;;;;;;;;19.08;34.79;102840.69;5072960;28;19920;-66
2023/06/12 09:47:42;;;;;;;;;;;;;;;19.23;35.15;102840.84;5073360;28;19982;-64
2023/06/12 09:50:08;;;;;;;;;;;;;;;19.29;34.18;102844.72;5071920;28;20345;-64
2023/06/12 09:52:34;;;;;;;;;;;;;;;19.32;34.16;102837.09;5072373;28;19921;-67
2023/06/12 09:55:03;;;;;;;;;;;;;;;19.20;33.45;102835.78;5072130;28;19926;-65
2023/06/12 09:57:28;;;;;;;;;;;;;;;19.09;34.20;102841.53;5072612;28;19921;-64
2023/06/12 09:59:56;;;;;;;;;;;;;;;19.07;33.68;102828.16;5072118;28;19924;-64
2023/06/12 10:02:22;;;;;;;;;;;;;;;19.06;34.21;102828.31;5072260;28;19990;-66
2023/06/12 10:04:47;;;;;;;;;;;;;;;19.08;34.36;102819.06;5072978;28;20319;-65
2023/06/12 10:07:16;;;;;;;;;;;;;;;19.24;34.53;102830.88;5072645;28;20379;-65
2023/06/12 10:09:43;;;;;;;;;;;;;;;19.36;34.71;102822.25;5072987;28;19983;-66
2023/06/12 10:12:10;;;;;;;;;;;;;;;19.44;34.72;102830.34;5055543;28;19993;-66
2023/06/12 10:14:37;;;;;;;;;;;;;;;19.49;33.89;102827.97;5073100;28;19921;-66
2023/06/12 10:17:03;;;;;;;;;;;;;;;19.54;34.64;102815.84;5055503;28;19920;-63
2023/06/12 10:19:30;;;;;;;;;;;;;;;19.55;34.64;102818.38;5073044;28;20005;-64
2023/06/12 10:21:56;;;;;;;;;;;;;;;19.56;33.88;102803.00;5073103;28;19920;-63
2023/06/12 10:24:22;;;;;;;;;;;;;;;19.46;33.90;102811.25;5056279;28;20023;-66
2023/06/12 10:26:52;;;;;;;;;;;;;;;19.48;34.16;102815.47;5023552;28;19921;-66
2023/06/12 10:29:25;;;;;;;;;;;;;;;19.52;34.11;102818.69;5073599;28;19920;-65
2023/06/12 10:31:53;;;;;;;;;;;;;;;19.62;34.28;102811.25;5074500;28;20403;-67
2023/06/12 10:34:20;;;;;;;;;;;;;;;19.69;34.49;102804.16;5055700;28;19974;-66
2023/06/12 10:36:49;;;;;;;;;;;;;;;19.70;34.37;102807.69;5075042;28;19920;-64
2023/06/12 10:39:19;;;;;;;;;;;;;;;19.70;34.21;102813.94;5038442;28;20341;-65
2023/06/12 10:41:55;;;;;;;;;;;;;;;19.71;33.72;102812.09;5072102;28;20314;-68
2023/06/12 10:44:51;;;;;;;;;;;;;;;19.73;34.03;102801.94;5072545;28;20423;-66
2023/06/12 10:47:21;;;;;;;;;;;;;;;19.68;33.73;102798.94;5055459;28;19978;-65
2023/06/12 10:50:00;;;;;;;;;;;;;;;19.68;33.66;102790.81;5072353;28;20384;-64
2023/06/12 10:52:25;;;;;;;;;;;;;;;19.73;34.00;102794.69;5072014;28;20031;-66
2023/06/12 10:55:09;;;;;;;;;;;;;;;19.79;34.53;102796.69;5072223;28;19955;-64
2023/06/12 10:57:35;;;;;;;;;;;;;;;19.76;33.46;102788.91;5071144;28;19921;-65
2023/06/12 11:00:01;;;;;;;;;;;;;;;19.66;33.07;102784.72;5054038;28;19936;-66
2023/06/12 11:02:28;;;;;;;;;;;;;;;19.59;33.51;102779.16;5071895;28;19927;-69
2023/06/12 11:04:54;;;;;;;;;;;;;;;19.64;34.34;102779.47;5071975;28;20370;-66
2023/06/12 11:07:20;;;;;;;;;;;;;;;19.72;34.07;102768.66;5071753;28;19920;-67
2023/06/12 11:09:45;;;;;;;;;;;;;;;19.72;33.66;102771.38;5072202;28;20041;-64
2023/06/12 11:12:11;;;;;;;;;;;;;;;19.76;34.34;102766.44;5072042;28;19946;-65
2023/06/12 11:14:36;;;;;;;;;;;;;;;19.91;33.91;102758.44;5054499;28;19979;-65
2023/06/12 11:17:02;;;;;;;;;;;;;;;19.96;33.08;102767.72;5054647;28;20411;-65
2023/06/12 11:19:28;;;;;;;;;;;;;;;19.98;33.82;102762.16;5075146;28;19920;-67
2023/06/12 11:21:54;;;;;;;;;;;;;;;19.96;33.56;102762.31;5075073;28;19921;-64
2023/06/12 11:24:19;;;;;;;;;;;;;;;19.98;34.33;102751.31;5072172;28;19956;-67
2023/06/12 11:26:48;;;;;;;;;;;;;;;20.04;33.15;102750.63;5071741;28;20017;-64
2023/06/12 11:29:17;;;;;;;;;;;;;;;20.09;33.39;102743.66;5072470;28;19920;-67
2023/06/12 11:31:47;;;;;;;;;;;;;;;20.15;33.33;102749.34;5072612;28;20417;-67
2023/06/12 11:34:13;;;;;;;;;;;;;;;20.04;33.07;102740.63;5074286;28;19920;-66
2023/06/12 11:36:38;;;;;;;;;;;;;;;20.02;33.23;102753.50;5072155;28;20359;-63
2023/06/12 11:39:15;;;;;;;;;;;;;;;20.03;32.75;102744.34;5073703;28;20336;-67
2023/06/12 11:41:40;;;;;;;;;;;;;;;19.99;32.51;102748.44;5074927;28;19927;-68
2023/06/12 11:44:06;;;;;;;;;;;;;;;20.05;33.23;102742.31;5055831;28;19920;-67
2023/06/12 11:46:31;;;;;;;;;;;;;;;20.15;32.96;102747.50;5053926;28;19973;-65
2023/06/12 11:49:01;;;;;;;;;;;;;;;20.16;33.03;102737.53;5072100;28;20367;-66
2023/06/12 11:51:26;;;;;;;;;;;;;;;20.17;32.59;102739.19;5071708;28;19967;-65
2023/06/12 11:53:51;;;;;;;;;;;;;;;20.20;32.84;102733.44;5071299;28;19921;-65
2023/06/12 11:56:17;;;;;;;;;;;;;;;20.24;33.11;102740.16;5071472;28;19935;-65
2023/06/12 11:58:44;;;;;;;;;;;;;;;20.28;33.23;102736.13;5072203;28;19928;-66
2023/06/12 12:01:14;;;;;;;;;;;;;;;20.32;33.02;102726.59;5072284;28;20420;-66
2023/06/12 12:03:44;;;;;;;;;;;;;;;20.29;32.18;102727.81;5071718;28;20406;-66
2023/06/12 12:06:09;;;;;;;;;;;;;;;20.11;32.60;102692.91;5071962;28;19925;-67
2023/06/12 12:08:35;;;;;;;;;;;;;;;20.33;32.32;102720.19;5072223;28;20287;-66
2023/06/12 12:11:14;;;;;;;;;;;;;;;20.36;32.95;102711.69;5075539;28;19924;-65
2023/06/12 12:13:49;;;;;;;;;;;;;;;20.38;32.81;102710.50;5075723;28;20417;-67
2023/06/12 12:16:15;;;;;;;;;;;;;;;20.46;33.30;102712.31;5076334;28;19924;-65
2023/06/12 12:18:41;;;;;;;;;;;;;;;20.53;32.40;102713.31;5057231;28;20280;-67
2023/06/12 12:21:12;;;;;;;;;;;;;;;20.45;32.53;102705.22;5074988;28;20288;-68
2023/06/12 12:23:38;;;;;;;;;;;;;;;20.38;32.01;102705.06;5075252;28;20023;-66
2023/06/12 12:26:03;;;;;;;;;;;;;;;20.29;32.24;102703.47;5075129;28;20027;-67
2023/06/12 12:28:28;;;;;;;;;;;;;;;20.23;31.66;102706.00;5074984;28;19927;-64
2023/06/12 12:30:54;;;;;;;;;;;;;;;20.27;32.89;102686.56;5075841;28;19978;-65
2023/06/12 12:33:19;;;;;;;;;;;;;;;20.34;32.83;102702.91;5075227;28;19963;-65
2023/06/12 12:35:45;;;;;;;;;;;;;;;20.26;32.16;102694.88;5060598;28;20360;-66